Time;durP1;ratioP1;P1;durP2;ratioP2;P2;SDS_P1;SDS_P2;PMS_P1;PMS_P2;Temp;Humidity;BMP_temperature;BMP_pressure;BME280_temperature;BME280_humidity;BME280_pressure;Samples;Min_cycle;Max_cycle;Signal;HPM_P1;HPM_P2
2021/11/28 00:02:14;;;;;;;161.43;78.78;;;;;;;;;;5033898;28;20033;-62
2021/11/28 00:04:41;;;;;;;164.65;76.85;;;;;;;;;;5033976;28;20029;-60
2021/11/28 00:10:06;;;;;;;163.48;78.50;;;;;;;;;;5005520;28;20033;-61
2021/11/28 00:15:03;;;;;;;182.50;79.65;;;;;;;;;;5054147;28;20028;-60
2021/11/28 00:17:29;;;;;;;198.20;81.45;;;;;;;;;;5054467;28;20481;-60
2021/11/28 00:19:56;;;;;;;208.02;83.20;;;;;;;;;;5054125;28;20115;-59
2021/11/28 00:22:22;;;;;;;215.82;85.95;;;;;;;;;;5054037;28;20112;-63
2021/11/28 00:24:50;;;;;;;249.38;86.20;;;;;;;;;;5054132;28;20071;-63
2021/11/28 00:27:16;;;;;;;242.30;86.97;;;;;;;;;;5053991;28;20025;-61
2021/11/28 00:29:43;;;;;;;266.17;86.47;;;;;;;;;;5053959;28;20107;-61
2021/11/28 00:32:10;;;;;;;240.93;86.88;;;;;;;;;;5052407;28;20382;-61
2021/11/28 00:34:36;;;;;;;243.65;88.15;;;;;;;;;;5053787;28;20033;-61
2021/11/28 00:37:02;;;;;;;255.80;90.05;;;;;;;;;;5053575;28;20253;-62
2021/11/28 00:39:28;;;;;;;260.20;87.88;;;;;;;;;;5048059;28;20060;-62
2021/11/28 00:41:55;;;;;;;265.52;87.43;;;;;;;;;;5035796;28;20052;-62
2021/11/28 00:44:21;;;;;;;252.95;86.05;;;;;;;;;;5053619;28;20025;-63
2021/11/28 00:46:47;;;;;;;237.98;85.00;;;;;;;;;;5053552;28;20465;-61
2021/11/28 00:49:21;;;;;;;245.18;81.95;;;;;;;;;;5053619;28;20385;-62
2021/11/28 00:54:14;;;;;;;235.52;79.20;;;;;;;;;;5053391;28;20033;-62
2021/11/28 00:56:40;;;;;;;263.83;86.72;;;;;;;;;;5053549;28;20067;-62
2021/11/28 00:59:06;;;;;;;252.63;84.70;;;;;;;;;;5053226;28;20032;-62
2021/11/28 01:01:34;;;;;;;252.63;84.00;;;;;;;;;;5053411;28;20058;-63
2021/11/28 01:04:00;;;;;;;264.85;86.10;;;;;;;;;;5057854;28;20477;-63
2021/11/28 01:06:26;;;;;;;263.83;84.80;;;;;;;;;;5054748;28;20052;-63
2021/11/28 01:08:53;;;;;;;298.00;87.68;;;;;;;;;;5052729;28;20473;-63
2021/11/28 01:11:20;;;;;;;294.00;85.47;;;;;;;;;;5053279;28;20136;-62
2021/11/28 01:13:46;;;;;;;302.92;88.75;;;;;;;;;;5052877;28;20025;-62
2021/11/28 01:16:13;;;;;;;285.65;85.85;;;;;;;;;;5035363;28;20527;-61
2021/11/28 01:18:39;;;;;;;299.60;89.45;;;;;;;;;;5043332;28;20072;-62
2021/11/28 01:21:06;;;;;;;323.52;87.65;;;;;;;;;;5040738;28;20057;-62
2021/11/28 01:23:32;;;;;;;321.70;88.20;;;;;;;;;;5042507;28;20108;-62
2021/11/28 01:25:58;;;;;;;317.38;89.00;;;;;;;;;;5015216;28;20037;-63
2021/11/28 01:28:25;;;;;;;317.98;89.97;;;;;;;;;;5041173;28;20032;-63
2021/11/28 01:30:51;;;;;;;356.23;92.38;;;;;;;;;;5045945;28;20048;-62
2021/11/28 01:33:17;;;;;;;300.70;87.22;;;;;;;;;;5052650;28;20055;-62
2021/11/28 01:35:43;;;;;;;330.05;89.68;;;;;;;;;;5052966;28;20068;-63
2021/11/28 01:38:10;;;;;;;310.80;91.40;;;;;;;;;;5052944;28;20029;-63
2021/11/28 01:40:37;;;;;;;285.88;85.88;;;;;;;;;;5052915;28;20037;-63
2021/11/28 01:43:05;;;;;;;303.60;88.22;;;;;;;;;;5052868;28;20370;-63
2021/11/28 01:45:32;;;;;;;328.67;91.90;;;;;;;;;;5052922;28;20025;-63
2021/11/28 01:47:59;;;;;;;413.35;92.47;;;;;;;;;;5052549;28;20470;-63
2021/11/28 01:50:28;;;;;;;323.85;91.07;;;;;;;;;;5035009;28;20025;-62
2021/11/28 01:52:55;;;;;;;394.73;94.80;;;;;;;;;;5052709;28;20091;-62
2021/11/28 01:55:23;;;;;;;385.48;88.45;;;;;;;;;;5052802;28;20112;-63
2021/11/28 01:57:50;;;;;;;441.95;90.97;;;;;;;;;;5053044;28;20025;-62
2021/11/28 02:00:19;;;;;;;341.63;87.15;;;;;;;;;;5052498;28;20036;-62
2021/11/28 02:02:46;;;;;;;339.77;89.50;;;;;;;;;;5052410;28;20366;-64
2021/11/28 02:05:14;;;;;;;336.70;89.97;;;;;;;;;;5052685;28;20033;-62
2021/11/28 02:07:40;;;;;;;392.10;92.97;;;;;;;;;;5052638;28;20025;-62
2021/11/28 02:10:07;;;;;;;328.60;88.72;;;;;;;;;;5052950;28;20060;-63
2021/11/28 02:12:33;;;;;;;422.05;89.72;;;;;;;;;;5052052;28;20049;-62
2021/11/28 02:15:00;;;;;;;394.98;90.35;;;;;;;;;;5052628;28;20056;-63
2021/11/28 02:17:27;;;;;;;382.15;90.30;;;;;;;;;;5034667;28;20104;-63
2021/11/28 02:19:55;;;;;;;442.45;91.38;;;;;;;;;;5052240;28;20490;-62
2021/11/28 02:22:21;;;;;;;418.52;90.38;;;;;;;;;;5052529;28;20033;-62
2021/11/28 02:24:47;;;;;;;460.00;94.25;;;;;;;;;;5052507;28;20025;-63
2021/11/28 02:27:13;;;;;;;322.98;87.63;;;;;;;;;;5055075;28;20572;-62
2021/11/28 02:29:43;;;;;;;334.13;86.70;;;;;;;;;;5056050;28;20426;-62
2021/11/28 02:32:10;;;;;;;325.13;85.22;;;;;;;;;;5038322;28;20556;-63
2021/11/28 02:34:37;;;;;;;388.83;90.10;;;;;;;;;;5056205;28;20035;-63
2021/11/28 02:37:04;;;;;;;385.67;90.15;;;;;;;;;;5038485;28;20386;-62
2021/11/28 02:39:31;;;;;;;386.15;89.35;;;;;;;;;;5056226;28;20029;-64
2021/11/28 02:41:57;;;;;;;353.65;86.80;;;;;;;;;;5056051;28;20025;-63
2021/11/28 02:44:23;;;;;;;375.27;88.88;;;;;;;;;;5038111;28;20029;-62
2021/11/28 02:46:50;;;;;;;330.98;83.40;;;;;;;;;;5055975;28;20089;-62
2021/11/28 02:49:16;;;;;;;536.35;93.28;;;;;;;;;;5038080;28;20037;-63
2021/11/28 02:51:43;;;;;;;374.10;86.72;;;;;;;;;;5055792;28;20118;-65
2021/11/28 02:54:09;;;;;;;378.48;84.25;;;;;;;;;;5055592;28;20461;-64
2021/11/28 02:56:36;;;;;;;347.50;82.30;;;;;;;;;;5055781;28;20445;-63
2021/11/28 02:59:03;;;;;;;423.13;86.90;;;;;;;;;;5056118;28;20044;-65
2021/11/28 03:01:30;;;;;;;398.67;88.30;;;;;;;;;;5055707;28;20420;-63
2021/11/28 03:03:56;;;;;;;415.10;85.25;;;;;;;;;;5055709;28;20060;-62
2021/11/28 03:06:22;;;;;;;392.45;86.13;;;;;;;;;;5055675;28;20036;-63
2021/11/28 03:08:48;;;;;;;372.60;87.40;;;;;;;;;;5037681;28;20029;-62
2021/11/28 03:11:16;;;;;;;444.80;90.65;;;;;;;;;;5055297;28;20072;-62
2021/11/28 03:13:44;;;;;;;380.73;87.70;;;;;;;;;;5055488;28;20036;-63
2021/11/28 03:16:13;;;;;;;382.90;85.03;;;;;;;;;;5055523;28;20108;-62
2021/11/28 03:18:39;;;;;;;480.50;86.25;;;;;;;;;;5055368;28;20100;-61
2021/11/28 03:21:08;;;;;;;445.67;85.32;;;;;;;;;;5055364;28;20108;-61
2021/11/28 03:23:35;;;;;;;456.10;86.22;;;;;;;;;;5037357;28;20080;-61
2021/11/28 03:26:06;;;;;;;409.30;86.28;;;;;;;;;;5037390;28;20093;-61
2021/11/28 03:28:33;;;;;;;428.60;86.65;;;;;;;;;;5055182;28;20395;-60
2021/11/28 03:30:59;;;;;;;475.05;87.65;;;;;;;;;;5054977;28;20059;-61
2021/11/28 03:33:25;;;;;;;362.85;82.63;;;;;;;;;;5055038;28;20025;-62
2021/11/28 03:35:51;;;;;;;367.83;81.72;;;;;;;;;;5055071;28;20470;-61
2021/11/28 03:38:18;;;;;;;417.38;85.50;;;;;;;;;;5036813;28;20029;-61
2021/11/28 03:40:44;;;;;;;530.97;88.75;;;;;;;;;;5037092;28;20025;-61
2021/11/28 03:43:10;;;;;;;354.33;82.30;;;;;;;;;;5054674;28;20036;-60
2021/11/28 03:45:36;;;;;;;385.85;82.78;;;;;;;;;;5054854;28;20052;-61
2021/11/28 03:48:03;;;;;;;335.88;77.88;;;;;;;;;;5054835;28;20037;-62
2021/11/28 03:50:29;;;;;;;278.50;78.35;;;;;;;;;;5054880;28;20112;-62
2021/11/28 03:52:55;;;;;;;255.32;75.35;;;;;;;;;;5054377;28;20037;-61
2021/11/28 03:55:23;;;;;;;282.83;76.35;;;;;;;;;;5054713;28;20033;-61
2021/11/28 03:57:49;;;;;;;266.50;77.70;;;;;;;;;;5054662;28;20025;-61
2021/11/28 04:00:16;;;;;;;266.67;75.22;;;;;;;;;;5036734;28;20078;-61
2021/11/28 04:02:42;;;;;;;273.80;78.72;;;;;;;;;;5054567;28;20036;-61
2021/11/28 04:05:11;;;;;;;263.73;79.43;;;;;;;;;;5054255;28;20382;-61
2021/11/28 04:07:37;;;;;;;255.85;78.07;;;;;;;;;;5054195;28;20481;-61
2021/11/28 04:10:05;;;;;;;270.70;78.93;;;;;;;;;;5054188;28;20060;-61
2021/11/28 04:12:31;;;;;;;253.85;79.15;;;;;;;;;;5054189;28;20545;-61
2021/11/28 04:14:58;;;;;;;236.02;74.15;;;;;;;;;;5054370;28;20039;-61
2021/11/28 04:17:24;;;;;;;229.70;71.90;;;;;;;;;;5054372;28;20028;-61
2021/11/28 04:19:52;;;;;;;210.82;70.10;;;;;;;;;;5036447;28;20082;-61
2021/11/28 04:22:18;;;;;;;222.90;73.10;;;;;;;;;;5054205;28;20480;-63
2021/11/28 04:24:44;;;;;;;212.40;70.32;;;;;;;;;;5054162;28;20025;-62
2021/11/28 04:27:11;;;;;;;179.55;65.50;;;;;;;;;;5036169;28;20031;-62
2021/11/28 04:29:37;;;;;;;186.88;66.82;;;;;;;;;;5054070;28;20029;-62
2021/11/28 04:32:04;;;;;;;164.43;64.28;;;;;;;;;;5053928;28;20388;-62
2021/11/28 04:34:30;;;;;;;166.18;62.45;;;;;;;;;;5036057;28;20025;-63
2021/11/28 04:36:57;;;;;;;154.80;61.45;;;;;;;;;;5053927;28;20107;-62
2021/11/28 04:39:23;;;;;;;152.73;60.20;;;;;;;;;;5054125;28;20039;-61
2021/11/28 04:41:50;;;;;;;138.00;56.40;;;;;;;;;;5053853;28;20025;-62
2021/11/28 04:44:16;;;;;;;141.98;54.33;;;;;;;;;;5035863;28;20346;-63
2021/11/28 04:46:42;;;;;;;147.88;58.38;;;;;;;;;;5053453;28;20401;-62
2021/11/28 04:49:09;;;;;;;149.98;59.63;;;;;;;;;;5035145;28;20098;-62
2021/11/28 04:51:35;;;;;;;156.10;59.72;;;;;;;;;;5035788;28;20090;-62
2021/11/28 04:54:01;;;;;;;131.10;53.38;;;;;;;;;;5053319;28;20442;-62
2021/11/28 04:56:28;;;;;;;121.65;54.38;;;;;;;;;;5053802;28;20025;-63
2021/11/28 04:58:55;;;;;;;135.52;58.85;;;;;;;;;;5053527;28;20485;-63
2021/11/28 05:01:21;;;;;;;141.10;56.28;;;;;;;;;;5053521;28;20031;-62
2021/11/28 05:03:48;;;;;;;110.13;49.95;;;;;;;;;;5053428;28;20036;-62
2021/11/28 05:06:14;;;;;;;155.20;49.70;;;;;;;;;;5053091;28;20493;-61
2021/11/28 05:08:41;;;;;;;240.55;54.00;;;;;;;;;;5053318;28;20108;-61
2021/11/28 05:11:07;;;;;;;162.55;55.90;;;;;;;;;;5053336;28;20029;-61
2021/11/28 05:13:33;;;;;;;124.95;51.30;;;;;;;;;;5035311;28;20136;-61
2021/11/28 05:15:59;;;;;;;158.98;55.45;;;;;;;;;;5053501;28;20038;-61
2021/11/28 05:18:25;;;;;;;96.20;44.25;;;;;;;;;;5053524;28;20484;-61
2021/11/28 05:20:52;;;;;;;102.78;45.65;;;;;;;;;;5053255;28;20075;-61
2021/11/28 05:23:18;;;;;;;129.73;42.80;;;;;;;;;;5053161;28;20032;-61
2021/11/28 05:25:45;;;;;;;99.78;45.88;;;;;;;;;;5042589;28;20017;-62
2021/11/28 05:28:12;;;;;;;126.28;47.60;;;;;;;;;;5052525;28;20021;-61
2021/11/28 05:30:39;;;;;;;155.18;68.68;;;;;;;;;;5040519;28;20038;-61
2021/11/28 05:33:05;;;;;;;162.25;64.30;;;;;;;;;;5032825;28;20044;-61
2021/11/28 05:35:31;;;;;;;141.07;60.45;;;;;;;;;;5032844;28;20025;-62
2021/11/28 05:37:57;;;;;;;138.45;58.72;;;;;;;;;;5032870;28;20040;-62
2021/11/28 05:40:24;;;;;;;124.85;55.65;;;;;;;;;;5047458;28;20053;-62
2021/11/28 05:42:52;;;;;;;116.50;55.03;;;;;;;;;;5034821;28;20470;-62
2021/11/28 05:45:22;;;;;;;100.25;50.40;;;;;;;;;;5052656;28;20458;-62
2021/11/28 05:47:49;;;;;;;128.43;60.45;;;;;;;;;;5052588;28;20029;-62
2021/11/28 05:50:17;;;;;;;133.13;62.63;;;;;;;;;;5052763;28;20028;-62
2021/11/28 05:52:43;;;;;;;128.25;65.28;;;;;;;;;;5052504;28;20176;-62
2021/11/28 05:55:10;;;;;;;120.75;60.03;;;;;;;;;;5052522;28;20488;-62
2021/11/28 05:57:36;;;;;;;158.18;76.85;;;;;;;;;;5052431;28;20025;-62
2021/11/28 06:00:04;;;;;;;149.82;74.25;;;;;;;;;;5053372;28;20116;-62
2021/11/28 06:02:30;;;;;;;109.00;55.78;;;;;;;;;;5056919;28;20553;-62
2021/11/28 06:04:56;;;;;;;95.15;52.45;;;;;;;;;;5056621;28;20195;-62
2021/11/28 06:07:23;;;;;;;98.55;51.90;;;;;;;;;;5056515;28;20040;-62
2021/11/28 06:09:49;;;;;;;100.72;51.80;;;;;;;;;;5038508;28;20116;-62
2021/11/28 06:12:15;;;;;;;104.53;52.80;;;;;;;;;;5056557;28;20510;-62
2021/11/28 06:14:41;;;;;;;128.65;60.45;;;;;;;;;;5038492;28;20111;-62
2021/11/28 06:17:08;;;;;;;124.72;62.97;;;;;;;;;;5038360;28;20079;-62
2021/11/28 06:19:34;;;;;;;113.82;59.00;;;;;;;;;;5056555;28;20025;-63
2021/11/28 06:22:01;;;;;;;103.57;51.83;;;;;;;;;;5056398;28;20539;-63
2021/11/28 06:24:27;;;;;;;113.22;53.65;;;;;;;;;;5056277;28;20083;-64
2021/11/28 06:26:53;;;;;;;115.75;54.28;;;;;;;;;;5038243;28;20037;-63
2021/11/28 06:29:19;;;;;;;109.97;51.90;;;;;;;;;;5056091;28;20469;-62
2021/11/28 06:31:45;;;;;;;124.00;51.60;;;;;;;;;;5056014;28;20035;-62
2021/11/28 06:34:12;;;;;;;109.05;52.25;;;;;;;;;;5056086;28;20033;-62
2021/11/28 06:36:38;;;;;;;124.78;50.40;;;;;;;;;;5037964;28;20453;-62
2021/11/28 06:39:04;;;;;;;91.68;47.17;;;;;;;;;;5055994;28;20025;-63
2021/11/28 06:41:31;;;;;;;94.63;46.03;;;;;;;;;;5037836;28;20110;-62
2021/11/28 06:43:57;;;;;;;85.78;45.58;;;;;;;;;;5055830;28;20071;-62
2021/11/28 06:46:23;;;;;;;107.63;48.00;;;;;;;;;;5037912;28;20124;-62
2021/11/28 06:48:50;;;;;;;97.25;49.92;;;;;;;;;;5055704;28;20087;-63
2021/11/28 06:51:16;;;;;;;108.22;54.22;;;;;;;;;;5036513;28;20033;-62
2021/11/28 06:53:42;;;;;;;111.40;55.08;;;;;;;;;;5037033;28;20138;-62
2021/11/28 06:56:09;;;;;;;118.85;56.90;;;;;;;;;;5055971;28;20467;-62
2021/11/28 06:58:36;;;;;;;119.10;60.45;;;;;;;;;;5055911;28;20114;-62
2021/11/28 07:01:03;;;;;;;105.88;57.00;;;;;;;;;;5055651;28;20025;-62
2021/11/28 07:03:29;;;;;;;98.63;52.90;;;;;;;;;;5055422;28;20125;-62
2021/11/28 07:05:56;;;;;;;118.40;57.13;;;;;;;;;;5055441;28;20025;-62
2021/11/28 07:08:22;;;;;;;118.43;59.20;;;;;;;;;;5037519;28;20025;-62
2021/11/28 07:10:49;;;;;;;128.77;63.15;;;;;;;;;;5055468;28;20032;-62
2021/11/28 07:13:15;;;;;;;135.95;65.93;;;;;;;;;;5054061;28;20041;-63
2021/11/28 07:15:44;;;;;;;114.45;58.67;;;;;;;;;;5037262;28;20025;-62
2021/11/28 07:18:11;;;;;;;121.75;61.00;;;;;;;;;;5055246;28;20028;-62
2021/11/28 07:20:37;;;;;;;109.88;56.75;;;;;;;;;;5055267;28;20469;-62
2021/11/28 07:23:03;;;;;;;104.50;51.70;;;;;;;;;;5055232;28;20041;-63
2021/11/28 07:25:30;;;;;;;101.45;54.35;;;;;;;;;;5055068;28;20454;-63
2021/11/28 07:27:56;;;;;;;111.03;55.45;;;;;;;;;;5054994;28;20060;-63
2021/11/28 07:30:23;;;;;;;129.82;60.80;;;;;;;;;;5037129;28;20040;-63
2021/11/28 07:32:50;;;;;;;96.63;45.28;;;;;;;;;;5055022;28;20037;-63
2021/11/28 07:35:16;;;;;;;102.88;43.03;;;;;;;;;;5054849;28;20035;-64
2021/11/28 07:37:42;;;;;;;91.80;41.85;;;;;;;;;;5054799;28;20381;-63
2021/11/28 07:40:09;;;;;;;106.18;42.05;;;;;;;;;;5036895;28;20549;-62
2021/11/28 07:42:35;;;;;;;83.03;39.83;;;;;;;;;;5055137;28;20567;-63
2021/11/28 07:45:02;;;;;;;90.28;44.75;;;;;;;;;;5054755;28;20021;-63
2021/11/28 07:47:28;;;;;;;86.70;43.70;;;;;;;;;;5054637;28;20033;-63
2021/11/28 07:49:54;;;;;;;86.35;46.33;;;;;;;;;;5054884;28;20466;-63
2021/11/28 07:52:20;;;;;;;100.35;51.20;;;;;;;;;;5054922;28;20549;-63
2021/11/28 07:54:46;;;;;;;93.38;48.33;;;;;;;;;;5054603;28;20036;-62
2021/11/28 07:57:13;;;;;;;102.70;48.58;;;;;;;;;;5036510;28;20036;-63
2021/11/28 07:59:39;;;;;;;97.10;49.67;;;;;;;;;;5054155;28;20096;-63
2021/11/28 08:02:05;;;;;;;105.15;52.72;;;;;;;;;;5054524;28;20036;-62
2021/11/28 08:04:31;;;;;;;110.32;55.50;;;;;;;;;;5054269;28;20452;-63
2021/11/28 08:06:59;;;;;;;119.25;57.55;;;;;;;;;;5054076;28;20036;-63
2021/11/28 08:09:25;;;;;;;109.35;56.67;;;;;;;;;;5054129;28;20108;-63
2021/11/28 08:11:52;;;;;;;117.60;60.22;;;;;;;;;;5035994;28;20044;-62
2021/11/28 08:14:18;;;;;;;106.45;56.17;;;;;;;;;;5054479;28;20029;-63
2021/11/28 08:16:45;;;;;;;102.68;56.55;;;;;;;;;;5036285;28;20021;-62
2021/11/28 08:19:11;;;;;;;103.45;55.65;;;;;;;;;;5035927;28;20028;-62
2021/11/28 08:21:38;;;;;;;103.82;55.92;;;;;;;;;;5054053;28;20108;-63
2021/11/28 08:24:05;;;;;;;112.63;55.00;;;;;;;;;;5053037;28;20024;-63
2021/11/28 08:26:33;;;;;;;82.53;47.42;;;;;;;;;;5053990;28;20025;-63
2021/11/28 08:28:59;;;;;;;84.72;47.65;;;;;;;;;;5036041;28;20025;-63
2021/11/28 08:31:25;;;;;;;87.13;46.50;;;;;;;;;;5053817;28;20045;-62
2021/11/28 08:33:51;;;;;;;82.97;46.53;;;;;;;;;;5053469;28;20021;-63
2021/11/28 08:36:20;;;;;;;79.35;42.30;;;;;;;;;;5053492;28;20021;-64
2021/11/28 08:38:47;;;;;;;72.57;40.50;;;;;;;;;;5053777;28;20057;-63
2021/11/28 08:41:14;;;;;;;81.68;42.28;;;;;;;;;;5053485;28;20037;-64
2021/11/28 08:43:41;;;;;;;75.32;42.53;;;;;;;;;;5053869;28;20534;-63
2021/11/28 08:46:07;;;;;;;76.50;43.78;;;;;;;;;;5053613;28;20108;-67
2021/11/28 08:48:33;;;;;;;74.38;39.42;;;;;;;;;;5035651;28;20112;-62
2021/11/28 08:51:00;;;;;;;73.05;37.17;;;;;;;;;;5035620;28;20119;-63
2021/11/28 08:53:27;;;;;;;59.92;35.95;;;;;;;;;;5053368;28;20533;-63
2021/11/28 09:06:23;;;;;;;64.93;35.17;;;;;;;;;;5110486;27;20108;-65
2021/11/28 09:08:50;;;;;;;68.80;38.13;;;;;;;;;;5072270;28;20060;-65
2021/11/28 09:11:17;;;;;;;71.55;40.58;;;;;;;;;;5072114;28;20111;-66
2021/11/28 09:13:44;;;;;;;69.07;37.67;;;;;;;;;;5090349;28;20020;-65
2021/11/28 09:16:11;;;;;;;59.83;32.10;;;;;;;;;;5090211;28;20069;-65
2021/11/28 09:18:44;;;;;;;60.45;34.35;;;;;;;;;;5090145;28;20013;-64
2021/11/28 09:21:15;;;;;;;61.97;31.05;;;;;;;;;;5086873;28;20024;-65
2021/11/28 09:26:25;;;;;;;66.43;34.13;;;13.20;99.90;;;;;;5089715;28;20043;-66
2021/11/28 09:28:51;;;;;;;53.83;31.65;;;13.40;99.90;;;;;;5089831;28;20028;-65
2021/11/28 09:31:17;;;;;;;54.63;30.10;;;;;;;;;;5089755;28;20029;-66
2021/11/28 09:33:44;;;;;;;47.83;29.58;;;;;;;;;;5089804;28;20022;-66
2021/11/28 09:36:10;;;;;;;46.42;27.15;;;13.50;99.90;;;;;;5071477;28;20048;-66
2021/11/28 09:38:36;;;;;;;44.58;24.60;;;14.00;99.90;;;;;;5071180;28;20461;-66
2021/11/28 09:41:10;;;;;;;37.42;20.25;;;14.00;99.90;;;;;;5089583;28;20029;-66
2021/11/28 09:43:42;;;;;;;33.45;19.63;;;14.30;99.90;;;;;;5089763;28;20358;-67
2021/11/28 09:46:10;;;;;;;35.47;19.88;;;14.30;99.90;;;;;;5089480;28;20039;-66
2021/11/28 09:48:36;;;;;;;31.13;19.48;;;14.30;99.90;;;;;;5071046;28;20416;-67
2021/11/28 09:51:05;;;;;;;51.60;25.38;;;14.10;99.90;;;;;;5089414;28;20609;-66
2021/11/28 09:53:32;;;;;;;57.75;30.02;;;14.10;99.90;;;;;;5089374;28;20468;-67
2021/11/28 09:55:59;;;;;;;62.58;29.25;;;14.10;99.90;;;;;;5089368;28;20020;-65
2021/11/28 09:58:27;;;;;;;61.08;31.35;;;14.20;99.90;;;;;;5071159;28;20511;-66
2021/11/28 10:00:56;;;;;;;49.40;25.25;;;14.30;99.90;;;;;;5089428;28;20032;-66
2021/11/28 10:03:23;;;;;;;49.80;26.77;;;14.40;99.90;;;;;;5071091;28;20052;-66
2021/11/28 10:05:54;;;;;;;45.28;21.88;;;14.50;99.90;;;;;;5078023;28;20059;-67
2021/11/28 10:08:20;;;;;;;53.95;21.88;;;15.10;99.90;;;;;;5074240;28;20052;-64
2021/11/28 10:11:12;;;;;;;28.88;15.15;;;15.50;99.90;;;;;;5074215;28;20024;-66
2021/11/28 10:13:38;;;;;;;19.13;9.82;;;16.20;99.90;;;;;;5075891;28;20479;-65
2021/11/28 10:16:04;;;;;;;17.65;8.40;;;16.30;97.70;;;;;;5075390;28;20025;-65
2021/11/28 10:18:31;;;;;;;14.02;8.25;;;15.90;96.40;;;;;;5075539;28;20056;-65
2021/11/28 10:21:02;;;;;;;13.27;8.10;;;15.70;95.50;;;;;;5075518;28;20485;-64
2021/11/28 10:23:29;;;;;;;21.38;11.77;;;15.40;95.30;;;;;;5075389;28;20191;-64
2021/11/28 10:26:17;;;;;;;24.13;11.75;;;15.40;96.30;;;;;;5056986;28;20048;-64
2021/11/28 10:29:19;;;;;;;23.02;12.85;;;;;;;;;;5055474;28;20470;-64
2021/11/28 10:31:50;;;;;;;19.98;10.70;;;16.20;94.40;;;;;;4993593;28;20185;-63
2021/11/28 10:34:28;;;;;;;25.75;11.55;;;17.50;91.20;;;;;;4993592;28;20039;-64
2021/11/28 10:37:04;;;;;;;25.45;12.02;;;;;;;;;;4993590;28;20057;-63
2021/11/28 10:39:40;;;;;;;23.48;12.93;;;17.90;90.40;;;;;;4993425;28;20062;-63
2021/11/28 10:42:08;;;;;;;17.60;9.35;;;18.60;88.30;;;;;;4993493;28;20034;-63
2021/11/28 10:44:34;;;;;;;14.15;7.95;;;18.40;87.00;;;;;;4976908;28;20534;-64
2021/11/28 10:47:13;;;;;;;14.27;7.38;;;;;;;;;;4993183;28;20042;-64
2021/11/28 10:49:40;;;;;;;8.68;5.55;;;;;;;;;;4993159;28;20019;-64
2021/11/28 10:52:12;;;;;;;7.43;4.97;;;18.20;86.60;;;;;;4993191;28;20034;-64
2021/11/28 10:54:43;;;;;;;7.85;4.70;;;17.40;89.10;;;;;;4993231;28;20034;-64
2021/11/28 10:57:10;;;;;;;8.30;5.55;;;17.30;90.70;;;;;;4992961;28;20033;-64
2021/11/28 10:59:41;;;;;;;7.47;4.68;;;17.10;91.20;;;;;;4992964;28;20039;-64
2021/11/28 11:02:29;;;;;;;7.70;4.23;;;17.00;90.30;;;;;;4976652;28;20426;-64
2021/11/28 11:04:57;;;;;;;7.30;3.53;;;16.90;90.50;;;;;;4986863;28;20045;-63
2021/11/28 11:07:24;;;;;;;5.43;3.78;;;16.90;89.80;;;;;;5053290;28;20075;-65
2021/11/28 11:09:53;;;;;;;5.38;3.53;;;17.00;89.90;;;;;;5053266;28;20374;-64
2021/11/28 11:12:27;;;;;;;9.27;4.85;;;17.10;88.90;;;;;;5054409;28;20600;-65
2021/11/28 11:14:56;;;;;;;16.17;7.50;;;17.10;89.70;;;;;;5057893;28;20039;-63
2021/11/28 11:17:26;;;;;;;17.48;9.30;;;17.30;90.10;;;;;;5058432;28;20021;-63
2021/11/28 11:19:52;;;;;;;20.38;9.65;;;17.20;90.20;;;;;;5052732;28;20031;-63
2021/11/28 11:22:26;;;;;;;26.08;13.52;;;17.30;89.50;;;;;;5054269;28;20078;-63
2021/11/28 11:24:52;;;;;;;28.08;14.13;;;17.40;89.70;;;;;;5052921;28;20036;-63
2021/11/28 11:27:22;;;;;;;23.15;13.10;;;17.40;89.80;;;;;;5054070;28;20036;-63
2021/11/28 11:29:52;;;;;;;19.63;9.75;;;17.40;88.20;;;;;;5054176;28;20469;-63
2021/11/28 11:32:22;;;;;;;12.38;6.68;;;17.30;86.80;;;;;;5054086;28;20359;-63
2021/11/28 11:34:59;;;;;;;10.55;6.13;;;17.30;86.50;;;;;;5053728;28;20424;-63
2021/11/28 11:37:27;;;;;;;16.30;8.55;;;17.30;82.50;;;;;;5054048;28;20116;-62
2021/11/28 11:39:56;;;;;;;18.40;7.95;;;17.30;83.70;;;;;;5053954;28;20082;-63
2021/11/28 11:42:25;;;;;;;13.98;8.27;;;17.30;83.80;;;;;;5053885;28;20025;-63
2021/11/28 11:44:51;;;;;;;13.32;7.03;;;17.30;84.80;;;;;;5053759;28;20056;-63
2021/11/28 11:47:19;;;;;;;10.10;5.68;;;17.30;84.40;;;;;;5053696;28;20478;-63
2021/11/28 11:49:47;;;;;;;4.70;3.30;;;17.30;83.60;;;;;;5053647;28;20029;-63
2021/11/28 11:52:14;;;;;;;6.97;3.33;;;17.40;82.90;;;;;;5053617;28;20415;-62
2021/11/28 11:54:46;;;;;;;11.07;5.05;;;17.50;84.70;;;;;;5053657;28;20025;-64
2021/11/28 11:57:24;;;;;;;13.93;6.22;;;;;;;;;;5052267;28;20025;-64
2021/11/28 12:00:27;;;;;;;12.05;5.43;;;17.70;84.80;;;;;;5053522;28;20465;-64
2021/11/28 12:02:54;;;;;;;7.30;3.95;;;;;;;;;;5071798;28;20025;-66
2021/11/28 12:05:25;;;;;;;10.57;5.18;;;18.50;77.20;;;;;;5072891;28;20048;-64
2021/11/28 12:08:01;;;;;;;;;;;18.70;78.00;;;;;;5073883;28;20029;-64
2021/11/28 12:10:43;;;;;;;8.15;4.55;;;18.60;77.30;;;;;;5073392;28;20363;-64
2021/11/28 12:13:09;;;;;;;;;;;;;;;;;;5073381;28;20029;-64
2021/11/28 12:15:39;;;;;;;11.05;5.43;;;18.70;77.60;;;;;;5055307;28;19962;-65
2021/11/28 12:18:07;;;;;;;7.03;4.30;;;19.00;76.50;;;;;;5073269;28;20032;-64
2021/11/28 12:20:49;;;;;;;12.35;5.78;;;18.70;75.80;;;;;;5073077;28;20029;-64
2021/11/28 12:23:35;;;;;;;7.90;5.13;;;;;;;;;;5072970;28;20120;-63
2021/11/28 12:26:01;;;;;;;9.77;5.43;;;18.50;78.10;;;;;;5022385;28;20124;-63
2021/11/28 12:28:32;;;;;;;14.15;6.95;;;18.10;76.30;;;;;;5072853;28;20079;-64
2021/11/28 12:31:04;;;;;;;4.72;2.83;;;18.00;78.10;;;;;;5073135;28;20024;-65
2021/11/28 12:33:52;;;;;;;3.00;1.77;;;17.90;75.20;;;;;;5072981;28;20021;-65
2021/11/28 12:36:36;;;;;;;0.82;0.77;;;17.90;72.60;;;;;;5072992;28;20480;-65
2021/11/28 12:39:35;;;;;;;1.92;1.30;;;17.80;72.90;;;;;;5072821;28;20055;-65
2021/11/28 12:42:02;;;;;;;3.60;1.10;;;17.80;73.80;;;;;;5072445;28;20044;-65
2021/11/28 12:44:48;;;;;;;4.82;1.98;;;17.70;73.20;;;;;;5072724;28;20033;-67
2021/11/28 12:47:14;;;;;;;1.13;0.93;;;17.70;73.90;;;;;;5054737;28;20040;-65
2021/11/28 12:49:52;;;;;;;1.00;0.85;;;17.80;70.40;;;;;;5054168;28;20431;-67
2021/11/28 12:52:25;;;;;;;0.80;0.80;;;17.70;70.60;;;;;;5053757;28;20029;-65
2021/11/28 12:55:12;;;;;;;1.13;0.80;;;17.80;70.50;;;;;;5072246;28;20032;-67
2021/11/28 12:57:56;;;;;;;2.25;1.20;;;17.80;69.80;;;;;;5071411;28;20407;-66
2021/11/28 13:00:29;;;;;;;2.28;1.42;;;17.70;71.40;;;;;;5072485;28;20027;-67
2021/11/28 13:02:58;;;;;;;4.38;2.05;;;17.70;71.50;;;;;;5072384;28;20033;-67
2021/11/28 13:05:30;;;;;;;5.30;2.83;;;17.70;71.60;;;;;;5072661;28;20481;-67
2021/11/28 13:08:05;;;;;;;6.68;2.92;;;17.60;72.60;;;;;;5072622;28;20472;-66
2021/11/28 13:10:47;;;;;;;7.35;2.90;;;17.70;72.90;;;;;;5054790;28;20535;-66
2021/11/28 13:13:19;;;;;;;7.38;3.15;;;17.80;72.60;;;;;;5072697;28;20029;-65
2021/11/28 13:15:58;;;;;;;6.32;3.47;;;17.80;72.30;;;;;;5072528;28;20032;-68
2021/11/28 13:18:30;;;;;;;9.32;3.83;;;17.80;71.60;;;;;;5072710;28;20063;-67
2021/11/28 13:21:12;;;;;;;7.20;3.90;;;17.80;72.10;;;;;;5072693;28;20033;-66
2021/11/28 13:23:45;;;;;;;3.47;2.40;;;17.80;72.30;;;;;;5072682;28;20445;-66
2021/11/28 13:26:17;;;;;;;4.05;2.67;;;17.80;71.70;;;;;;5048338;28;20163;-66
2021/11/28 13:28:45;;;;;;;5.78;3.60;;;17.70;72.10;;;;;;5065770;28;20079;-68
2021/11/28 13:31:22;;;;;;;7.45;4.68;;;17.70;71.90;;;;;;5052337;28;20108;-68
2021/11/28 13:33:58;;;;;;;8.45;4.90;;;17.60;73.20;;;;;;5034660;28;20585;-66
2021/11/28 13:36:49;;;;;;;9.95;4.32;;;17.50;72.60;;;;;;5034709;28;20025;-67
2021/11/28 13:39:21;;;;;;;8.45;5.00;;;17.40;73.60;;;;;;5052400;28;20053;-67
2021/11/28 13:41:50;;;;;;;9.52;4.10;;;17.30;74.80;;;;;;5054508;28;20025;-66
2021/11/28 13:44:21;;;;;;;7.20;3.22;;;17.20;74.70;;;;;;5060521;28;20034;-63
2021/11/28 13:46:48;;;;;;;5.68;3.63;;;17.10;76.30;;;;;;5046583;28;20029;-66
2021/11/28 13:49:28;;;;;;;8.07;4.15;;;17.10;77.20;;;;;;5075962;28;20074;-65
2021/11/28 13:52:05;;;;;;;11.90;3.85;;;17.00;76.30;;;;;;5076237;28;20063;-66
2021/11/28 13:54:40;;;;;;;5.90;3.40;;;17.00;76.60;;;;;;5075612;28;20031;-65
2021/11/28 13:57:09;;;;;;;7.57;4.40;;;17.00;75.10;;;;;;5075632;28;20484;-65
2021/11/28 13:59:43;;;;;;;7.28;4.30;;;17.00;75.60;;;;;;5075305;28;20362;-64
2021/11/28 14:02:18;;;;;;;11.15;5.07;;;16.90;76.50;;;;;;5075656;28;20075;-64
2021/11/28 14:05:08;;;;;;;9.63;5.00;;;16.80;75.90;;;;;;5075346;28;20044;-65
2021/11/28 14:07:43;;;;;;;7.68;4.07;;;16.80;75.80;;;;;;5045847;28;20037;-65
2021/11/28 14:10:12;;;;;;;8.30;5.18;;;16.80;76.20;;;;;;5075065;28;20029;-65